Аэропорт: Актау. Актау

ICAO: UATE

METAR:
2020-08-09 23:30:00
UATE 092330Z 32003MPS CAVOK 20/14 Q1008 R30/0///70 NOSIG RMK QFE754/1006
METAR:
2020-08-09 17:05:00
TAF UATE 091705Z 0918/1018 01005MPS 9999 SCT033CB TX32/1009Z TN22/1001Z TEMPO 0918/0920 27005MPS 3000 BR SCT005 TEMPO 0920/1003 VRB02MPS 0300 FG VV001 BECMG 1003/1005 35007MPS